sensor_id;sensor_type;location;lat;lon;timestamp;temperature;humidity
15107;DHT22;7654;45.308;-75.096;2023-07-31T00:01:17;18.30;99.90
15107;DHT22;7654;45.308;-75.096;2023-07-31T00:03:50;18.30;99.90
15107;DHT22;7654;45.308;-75.096;2023-07-31T00:06:25;18.30;99.90
15107;DHT22;7654;45.308;-75.096;2023-07-31T00:08:56;18.40;99.90
15107;DHT22;7654;45.308;-75.096;2023-07-31T00:11:28;18.30;99.90
15107;DHT22;7654;45.308;-75.096;2023-07-31T00:13:59;18.30;99.90
15107;DHT22;7654;45.308;-75.096;2023-07-31T00:16:30;18.20;99.90
15107;DHT22;7654;45.308;-75.096;2023-07-31T00:19:01;18.20;99.90
15107;DHT22;7654;45.308;-75.096;2023-07-31T00:21:34;18.10;99.90
15107;DHT22;7654;45.308;-75.096;2023-07-31T00:24:05;18.00;99.90
15107;DHT22;7654;45.308;-75.096;2023-07-31T00:26:35;17.90;99.90
15107;DHT22;7654;45.308;-75.096;2023-07-31T00:29:06;17.70;99.90
15107;DHT22;7654;45.308;-75.096;2023-07-31T00:31:37;17.60;99.90
15107;DHT22;7654;45.308;-75.096;2023-07-31T00:34:08;17.50;99.90
15107;DHT22;7654;45.308;-75.096;2023-07-31T00:36:40;17.40;99.90
15107;DHT22;7654;45.308;-75.096;2023-07-31T00:39:10;17.20;99.90
15107;DHT22;7654;45.308;-75.096;2023-07-31T00:41:41;17.10;99.90
15107;DHT22;7654;45.308;-75.096;2023-07-31T00:44:12;17.00;99.90
15107;DHT22;7654;45.308;-75.096;2023-07-31T00:46:42;16.90;99.90
15107;DHT22;7654;45.308;-75.096;2023-07-31T00:49:13;17.00;99.90
15107;DHT22;7654;45.308;-75.096;2023-07-31T00:51:45;17.00;99.90
15107;DHT22;7654;45.308;-75.096;2023-07-31T00:54:16;16.80;99.90
15107;DHT22;7654;45.308;-75.096;2023-07-31T00:56:47;16.80;99.90
15107;DHT22;7654;45.308;-75.096;2023-07-31T00:59:17;16.80;99.90
15107;DHT22;7654;45.308;-75.096;2023-07-31T01:01:48;16.80;99.90
15107;DHT22;7654;45.308;-75.096;2023-07-31T01:04:20;16.70;99.90
15107;DHT22;7654;45.308;-75.096;2023-07-31T01:07:02;16.80;99.90
15107;DHT22;7654;45.308;-75.096;2023-07-31T01:09:42;16.80;99.90
15107;DHT22;7654;45.308;-75.096;2023-07-31T01:12:15;16.80;99.90
15107;DHT22;7654;45.308;-75.096;2023-07-31T01:15:03;16.80;99.90
15107;DHT22;7654;45.308;-75.096;2023-07-31T01:17:33;16.80;99.90
15107;DHT22;7654;45.308;-75.096;2023-07-31T01:20:08;16.80;99.90
15107;DHT22;7654;45.308;-75.096;2023-07-31T01:23:03;16.80;99.90
15107;DHT22;7654;45.308;-75.096;2023-07-31T01:26:03;16.80;99.90
15107;DHT22;7654;45.308;-75.096;2023-07-31T01:28:46;16.80;99.90
15107;DHT22;7654;45.308;-75.096;2023-07-31T01:31:20;16.90;99.90
15107;DHT22;7654;45.308;-75.096;2023-07-31T01:33:54;16.90;99.90
15107;DHT22;7654;45.308;-75.096;2023-07-31T01:36:27;17.00;99.90
15107;DHT22;7654;45.308;-75.096;2023-07-31T01:38:59;17.00;99.90
15107;DHT22;7654;45.308;-75.096;2023-07-31T01:41:32;17.10;99.90
15107;DHT22;7654;45.308;-75.096;2023-07-31T01:44:02;17.20;99.90
15107;DHT22;7654;45.308;-75.096;2023-07-31T01:46:34;17.20;99.90
15107;DHT22;7654;45.308;-75.096;2023-07-31T01:49:05;17.20;99.90
15107;DHT22;7654;45.308;-75.096;2023-07-31T01:51:36;17.20;99.90
15107;DHT22;7654;45.308;-75.096;2023-07-31T01:54:08;17.20;99.90
15107;DHT22;7654;45.308;-75.096;2023-07-31T01:56:45;17.20;99.90
15107;DHT22;7654;45.308;-75.096;2023-07-31T01:59:17;17.10;99.90
15107;DHT22;7654;45.308;-75.096;2023-07-31T02:01:48;17.10;99.90
15107;DHT22;7654;45.308;-75.096;2023-07-31T02:04:22;17.00;99.90
15107;DHT22;7654;45.308;-75.096;2023-07-31T02:06:53;17.00;99.90
15107;DHT22;7654;45.308;-75.096;2023-07-31T02:09:23;17.00;99.90
15107;DHT22;7654;45.308;-75.096;2023-07-31T02:11:56;17.00;99.90
15107;DHT22;7654;45.308;-75.096;2023-07-31T02:14:26;17.00;99.90
15107;DHT22;7654;45.308;-75.096;2023-07-31T02:16:57;16.90;99.90
15107;DHT22;7654;45.308;-75.096;2023-07-31T02:19:28;16.80;99.90
15107;DHT22;7654;45.308;-75.096;2023-07-31T02:21:58;16.80;99.90
15107;DHT22;7654;45.308;-75.096;2023-07-31T02:24:29;16.70;99.90
15107;DHT22;7654;45.308;-75.096;2023-07-31T02:27:02;16.70;99.90
15107;DHT22;7654;45.308;-75.096;2023-07-31T02:29:33;16.60;99.90
15107;DHT22;7654;45.308;-75.096;2023-07-31T02:32:04;16.50;99.90
15107;DHT22;7654;45.308;-75.096;2023-07-31T02:34:35;16.50;99.90
15107;DHT22;7654;45.308;-75.096;2023-07-31T02:37:06;16.40;99.90
15107;DHT22;7654;45.308;-75.096;2023-07-31T02:39:37;16.40;99.90
15107;DHT22;7654;45.308;-75.096;2023-07-31T02:42:09;16.40;99.90
15107;DHT22;7654;45.308;-75.096;2023-07-31T02:44:40;16.40;99.90
15107;DHT22;7654;45.308;-75.096;2023-07-31T02:47:10;16.40;99.90
15107;DHT22;7654;45.308;-75.096;2023-07-31T02:49:41;16.40;99.90
15107;DHT22;7654;45.308;-75.096;2023-07-31T02:52:12;16.40;99.90
15107;DHT22;7654;45.308;-75.096;2023-07-31T02:54:43;16.50;99.90
15107;DHT22;7654;45.308;-75.096;2023-07-31T02:57:15;16.50;99.90
15107;DHT22;7654;45.308;-75.096;2023-07-31T02:59:46;16.50;99.90
15107;DHT22;7654;45.308;-75.096;2023-07-31T03:02:18;16.50;99.90
15107;DHT22;7654;45.308;-75.096;2023-07-31T03:04:48;16.50;99.90
15107;DHT22;7654;45.308;-75.096;2023-07-31T03:07:19;16.70;99.90
15107;DHT22;7654;45.308;-75.096;2023-07-31T03:09:49;16.70;99.90
15107;DHT22;7654;45.308;-75.096;2023-07-31T03:12:22;16.90;99.90
15107;DHT22;7654;45.308;-75.096;2023-07-31T03:14:52;16.90;99.90
15107;DHT22;7654;45.308;-75.096;2023-07-31T03:17:23;16.90;99.90
15107;DHT22;7654;45.308;-75.096;2023-07-31T03:19:53;16.90;99.90
15107;DHT22;7654;45.308;-75.096;2023-07-31T03:22:24;16.90;99.90
15107;DHT22;7654;45.308;-75.096;2023-07-31T03:24:55;16.90;99.90
15107;DHT22;7654;45.308;-75.096;2023-07-31T03:27:27;16.80;99.90
15107;DHT22;7654;45.308;-75.096;2023-07-31T03:29:58;16.80;99.90
15107;DHT22;7654;45.308;-75.096;2023-07-31T03:32:30;16.80;99.90
15107;DHT22;7654;45.308;-75.096;2023-07-31T03:35:00;16.70;99.90
15107;DHT22;7654;45.308;-75.096;2023-07-31T03:37:31;16.60;99.90
15107;DHT22;7654;45.308;-75.096;2023-07-31T03:40:01;16.50;99.90
15107;DHT22;7654;45.308;-75.096;2023-07-31T03:42:34;16.40;99.90
15107;DHT22;7654;45.308;-75.096;2023-07-31T03:45:06;16.40;99.90
15107;DHT22;7654;45.308;-75.096;2023-07-31T03:47:37;16.30;99.90
15107;DHT22;7654;45.308;-75.096;2023-07-31T03:50:09;16.20;99.90
15107;DHT22;7654;45.308;-75.096;2023-07-31T03:52:40;16.10;99.90
15107;DHT22;7654;45.308;-75.096;2023-07-31T03:55:11;16.10;99.90
15107;DHT22;7654;45.308;-75.096;2023-07-31T03:57:43;16.10;99.90
15107;DHT22;7654;45.308;-75.096;2023-07-31T04:00:15;16.00;99.90
15107;DHT22;7654;45.308;-75.096;2023-07-31T04:02:45;16.00;99.90
15107;DHT22;7654;45.308;-75.096;2023-07-31T04:05:16;15.90;99.90
15107;DHT22;7654;45.308;-75.096;2023-07-31T04:07:46;16.00;99.90
15107;DHT22;7654;45.308;-75.096;2023-07-31T04:10:20;16.10;99.90
15107;DHT22;7654;45.308;-75.096;2023-07-31T04:12:53;16.00;99.90
15107;DHT22;7654;45.308;-75.096;2023-07-31T04:15:23;16.00;99.90
15107;DHT22;7654;45.308;-75.096;2023-07-31T04:17:54;15.90;99.90
15107;DHT22;7654;45.308;-75.096;2023-07-31T04:20:24;15.80;99.90
15107;DHT22;7654;45.308;-75.096;2023-07-31T04:22:55;15.70;99.90
15107;DHT22;7654;45.308;-75.096;2023-07-31T04:25:27;15.70;99.90
15107;DHT22;7654;45.308;-75.096;2023-07-31T04:27:59;15.60;99.90
15107;DHT22;7654;45.308;-75.096;2023-07-31T04:30:30;15.50;99.90
15107;DHT22;7654;45.308;-75.096;2023-07-31T04:33:01;15.40;99.90
15107;DHT22;7654;45.308;-75.096;2023-07-31T04:35:31;15.30;99.90
15107;DHT22;7654;45.308;-75.096;2023-07-31T04:38:02;15.30;99.90
15107;DHT22;7654;45.308;-75.096;2023-07-31T04:40:32;15.30;99.90
15107;DHT22;7654;45.308;-75.096;2023-07-31T04:43:04;15.20;99.90
15107;DHT22;7654;45.308;-75.096;2023-07-31T04:45:35;15.20;99.90
15107;DHT22;7654;45.308;-75.096;2023-07-31T04:48:06;15.20;99.90
15107;DHT22;7654;45.308;-75.096;2023-07-31T04:50:36;15.20;99.90
15107;DHT22;7654;45.308;-75.096;2023-07-31T04:53:07;15.10;99.90
15107;DHT22;7654;45.308;-75.096;2023-07-31T04:55:37;15.10;99.90
15107;DHT22;7654;45.308;-75.096;2023-07-31T04:58:10;15.10;99.90
15107;DHT22;7654;45.308;-75.096;2023-07-31T05:00:40;15.10;99.90
15107;DHT22;7654;45.308;-75.096;2023-07-31T05:03:11;15.10;99.90
15107;DHT22;7654;45.308;-75.096;2023-07-31T05:05:41;15.10;99.90
15107;DHT22;7654;45.308;-75.096;2023-07-31T05:08:12;15.10;99.90
15107;DHT22;7654;45.308;-75.096;2023-07-31T05:10:43;15.10;99.90
15107;DHT22;7654;45.308;-75.096;2023-07-31T05:13:15;15.10;99.90
15107;DHT22;7654;45.308;-75.096;2023-07-31T05:15:46;15.10;99.90
15107;DHT22;7654;45.308;-75.096;2023-07-31T05:18:18;15.10;99.90
15107;DHT22;7654;45.308;-75.096;2023-07-31T05:20:48;15.00;99.90
15107;DHT22;7654;45.308;-75.096;2023-07-31T05:23:18;15.00;99.90
15107;DHT22;7654;45.308;-75.096;2023-07-31T05:25:49;14.90;99.90
15107;DHT22;7654;45.308;-75.096;2023-07-31T05:28:22;14.80;99.90
15107;DHT22;7654;45.308;-75.096;2023-07-31T05:30:52;14.70;99.90
15107;DHT22;7654;45.308;-75.096;2023-07-31T05:33:28;14.70;99.90
15107;DHT22;7654;45.308;-75.096;2023-07-31T05:35:59;14.70;99.90
15107;DHT22;7654;45.308;-75.096;2023-07-31T05:38:29;14.70;99.90
15107;DHT22;7654;45.308;-75.096;2023-07-31T05:41:00;14.60;99.90
15107;DHT22;7654;45.308;-75.096;2023-07-31T05:43:32;14.60;99.90
15107;DHT22;7654;45.308;-75.096;2023-07-31T05:46:03;14.50;99.90
15107;DHT22;7654;45.308;-75.096;2023-07-31T05:48:35;14.40;99.90
15107;DHT22;7654;45.308;-75.096;2023-07-31T05:51:05;14.40;99.90
15107;DHT22;7654;45.308;-75.096;2023-07-31T05:53:36;14.40;99.90
15107;DHT22;7654;45.308;-75.096;2023-07-31T05:56:09;14.40;99.90
15107;DHT22;7654;45.308;-75.096;2023-07-31T05:58:41;14.50;99.90
15107;DHT22;7654;45.308;-75.096;2023-07-31T06:01:12;14.50;99.90
15107;DHT22;7654;45.308;-75.096;2023-07-31T06:03:43;14.50;99.90
15107;DHT22;7654;45.308;-75.096;2023-07-31T06:06:13;14.50;99.90
15107;DHT22;7654;45.308;-75.096;2023-07-31T06:08:44;14.50;99.90
15107;DHT22;7654;45.308;-75.096;2023-07-31T06:11:15;14.50;99.90
15107;DHT22;7654;45.308;-75.096;2023-07-31T06:13:47;14.50;99.90
15107;DHT22;7654;45.308;-75.096;2023-07-31T06:16:18;14.50;99.90
15107;DHT22;7654;45.308;-75.096;2023-07-31T06:18:50;14.50;99.90
15107;DHT22;7654;45.308;-75.096;2023-07-31T06:21:21;14.50;99.90
15107;DHT22;7654;45.308;-75.096;2023-07-31T06:23:51;14.50;99.90
15107;DHT22;7654;45.308;-75.096;2023-07-31T06:26:22;14.50;99.90
15107;DHT22;7654;45.308;-75.096;2023-07-31T06:28:54;14.50;99.90
15107;DHT22;7654;45.308;-75.096;2023-07-31T06:31:24;14.50;99.90
15107;DHT22;7654;45.308;-75.096;2023-07-31T06:33:55;14.60;99.90
15107;DHT22;7654;45.308;-75.096;2023-07-31T06:36:26;14.50;99.90
15107;DHT22;7654;45.308;-75.096;2023-07-31T06:38:56;14.60;99.90
15107;DHT22;7654;45.308;-75.096;2023-07-31T06:41:26;14.60;99.90
15107;DHT22;7654;45.308;-75.096;2023-07-31T06:43:59;14.60;99.90
15107;DHT22;7654;45.308;-75.096;2023-07-31T06:46:29;14.60;99.90
15107;DHT22;7654;45.308;-75.096;2023-07-31T06:49:00;14.60;99.90
15107;DHT22;7654;45.308;-75.096;2023-07-31T06:51:30;14.60;99.90
15107;DHT22;7654;45.308;-75.096;2023-07-31T06:54:01;14.60;99.90
15107;DHT22;7654;45.308;-75.096;2023-07-31T06:56:32;14.60;99.90
15107;DHT22;7654;45.308;-75.096;2023-07-31T06:59:07;14.60;99.90
15107;DHT22;7654;45.308;-75.096;2023-07-31T07:01:38;14.60;99.90
15107;DHT22;7654;45.308;-75.096;2023-07-31T07:04:08;14.60;99.90
15107;DHT22;7654;45.308;-75.096;2023-07-31T07:06:39;14.60;99.90
15107;DHT22;7654;45.308;-75.096;2023-07-31T07:09:10;14.60;99.90
15107;DHT22;7654;45.308;-75.096;2023-07-31T07:11:41;14.60;99.90
15107;DHT22;7654;45.308;-75.096;2023-07-31T07:14:14;14.60;99.90
15107;DHT22;7654;45.308;-75.096;2023-07-31T07:16:45;14.60;99.90
15107;DHT22;7654;45.308;-75.096;2023-07-31T07:19:16;14.60;99.90
15107;DHT22;7654;45.308;-75.096;2023-07-31T07:21:46;14.60;99.90
15107;DHT22;7654;45.308;-75.096;2023-07-31T07:24:17;14.60;99.90
15107;DHT22;7654;45.308;-75.096;2023-07-31T07:26:47;14.60;99.90
15107;DHT22;7654;45.308;-75.096;2023-07-31T07:29:19;14.60;99.90
15107;DHT22;7654;45.308;-75.096;2023-07-31T07:31:50;14.60;99.90
15107;DHT22;7654;45.308;-75.096;2023-07-31T07:34:23;14.60;99.90
15107;DHT22;7654;45.308;-75.096;2023-07-31T07:36:53;14.60;99.90
15107;DHT22;7654;45.308;-75.096;2023-07-31T07:39:24;14.60;99.90
15107;DHT22;7654;45.308;-75.096;2023-07-31T07:41:54;14.60;99.90
15107;DHT22;7654;45.308;-75.096;2023-07-31T07:44:27;14.60;99.90
15107;DHT22;7654;45.308;-75.096;2023-07-31T07:46:58;14.60;99.90
15107;DHT22;7654;45.308;-75.096;2023-07-31T07:49:30;14.60;99.90
15107;DHT22;7654;45.308;-75.096;2023-07-31T07:52:00;14.60;99.90
15107;DHT22;7654;45.308;-75.096;2023-07-31T07:54:31;14.60;99.90
15107;DHT22;7654;45.308;-75.096;2023-07-31T07:57:01;14.60;99.90
15107;DHT22;7654;45.308;-75.096;2023-07-31T07:59:34;14.60;99.90
15107;DHT22;7654;45.308;-75.096;2023-07-31T08:02:04;14.60;99.90
15107;DHT22;7654;45.308;-75.096;2023-07-31T08:04:35;14.60;99.90
15107;DHT22;7654;45.308;-75.096;2023-07-31T08:07:05;14.50;99.90
15107;DHT22;7654;45.308;-75.096;2023-07-31T08:09:36;14.50;99.90
15107;DHT22;7654;45.308;-75.096;2023-07-31T08:12:07;14.50;99.90
15107;DHT22;7654;45.308;-75.096;2023-07-31T08:14:39;14.50;99.90
15107;DHT22;7654;45.308;-75.096;2023-07-31T08:17:10;14.50;99.90
15107;DHT22;7654;45.308;-75.096;2023-07-31T08:19:40;14.50;99.90
15107;DHT22;7654;45.308;-75.096;2023-07-31T08:22:12;14.40;99.90
15107;DHT22;7654;45.308;-75.096;2023-07-31T08:24:43;14.40;99.90
15107;DHT22;7654;45.308;-75.096;2023-07-31T08:27:14;14.40;99.90
15107;DHT22;7654;45.308;-75.096;2023-07-31T08:29:46;14.30;99.90
15107;DHT22;7654;45.308;-75.096;2023-07-31T08:32:17;14.30;99.90
15107;DHT22;7654;45.308;-75.096;2023-07-31T08:34:48;14.30;99.90
15107;DHT22;7654;45.308;-75.096;2023-07-31T08:37:19;14.30;99.90
15107;DHT22;7654;45.308;-75.096;2023-07-31T08:39:51;14.20;99.90
15107;DHT22;7654;45.308;-75.096;2023-07-31T08:42:23;14.20;99.90
15107;DHT22;7654;45.308;-75.096;2023-07-31T08:44:58;14.20;99.90
15107;DHT22;7654;45.308;-75.096;2023-07-31T08:47:29;14.20;99.90
15107;DHT22;7654;45.308;-75.096;2023-07-31T08:50:01;14.20;99.90
15107;DHT22;7654;45.308;-75.096;2023-07-31T08:52:32;14.20;99.90
15107;DHT22;7654;45.308;-75.096;2023-07-31T08:55:03;14.20;99.90
15107;DHT22;7654;45.308;-75.096;2023-07-31T08:57:35;14.30;99.90
15107;DHT22;7654;45.308;-75.096;2023-07-31T09:00:10;14.30;99.90
15107;DHT22;7654;45.308;-75.096;2023-07-31T09:02:44;14.30;99.90
15107;DHT22;7654;45.308;-75.096;2023-07-31T09:05:16;14.30;99.90
15107;DHT22;7654;45.308;-75.096;2023-07-31T09:07:48;14.20;99.90
15107;DHT22;7654;45.308;-75.096;2023-07-31T09:10:20;14.30;99.90
15107;DHT22;7654;45.308;-75.096;2023-07-31T09:12:52;14.30;99.90
15107;DHT22;7654;45.308;-75.096;2023-07-31T09:15:24;14.30;99.90
15107;DHT22;7654;45.308;-75.096;2023-07-31T09:18:06;14.20;99.90
15107;DHT22;7654;45.308;-75.096;2023-07-31T09:20:37;14.20;99.90
15107;DHT22;7654;45.308;-75.096;2023-07-31T09:23:08;14.30;99.90
15107;DHT22;7654;45.308;-75.096;2023-07-31T09:25:43;14.30;99.90
15107;DHT22;7654;45.308;-75.096;2023-07-31T09:28:16;14.30;99.90
15107;DHT22;7654;45.308;-75.096;2023-07-31T09:30:51;14.30;99.90
15107;DHT22;7654;45.308;-75.096;2023-07-31T09:33:22;14.30;99.90
15107;DHT22;7654;45.308;-75.096;2023-07-31T09:35:53;14.20;99.90
15107;DHT22;7654;45.308;-75.096;2023-07-31T09:38:24;14.20;99.90
15107;DHT22;7654;45.308;-75.096;2023-07-31T09:40:56;14.30;99.90
15107;DHT22;7654;45.308;-75.096;2023-07-31T09:43:28;14.20;99.90
15107;DHT22;7654;45.308;-75.096;2023-07-31T09:46:01;14.20;99.90
15107;DHT22;7654;45.308;-75.096;2023-07-31T09:48:31;14.20;99.90
15107;DHT22;7654;45.308;-75.096;2023-07-31T09:51:04;14.20;99.90
15107;DHT22;7654;45.308;-75.096;2023-07-31T09:53:36;14.20;99.90
15107;DHT22;7654;45.308;-75.096;2023-07-31T09:56:07;14.20;99.90
15107;DHT22;7654;45.308;-75.096;2023-07-31T09:58:38;14.20;99.90
15107;DHT22;7654;45.308;-75.096;2023-07-31T10:01:11;14.20;99.90
15107;DHT22;7654;45.308;-75.096;2023-07-31T10:03:46;14.30;99.90
15107;DHT22;7654;45.308;-75.096;2023-07-31T10:06:17;14.40;99.90
15107;DHT22;7654;45.308;-75.096;2023-07-31T10:08:52;14.40;99.90
15107;DHT22;7654;45.308;-75.096;2023-07-31T10:11:25;14.40;99.90
15107;DHT22;7654;45.308;-75.096;2023-07-31T10:13:58;14.50;99.90
15107;DHT22;7654;45.308;-75.096;2023-07-31T10:16:31;14.50;99.90
15107;DHT22;7654;45.308;-75.096;2023-07-31T10:19:02;14.60;99.90
15107;DHT22;7654;45.308;-75.096;2023-07-31T10:21:33;14.60;99.90
15107;DHT22;7654;45.308;-75.096;2023-07-31T10:24:06;14.60;99.90
15107;DHT22;7654;45.308;-75.096;2023-07-31T10:26:39;14.60;99.90
15107;DHT22;7654;45.308;-75.096;2023-07-31T10:29:09;14.60;99.90
15107;DHT22;7654;45.308;-75.096;2023-07-31T10:31:42;14.60;99.90
15107;DHT22;7654;45.308;-75.096;2023-07-31T10:34:14;14.60;99.90
15107;DHT22;7654;45.308;-75.096;2023-07-31T10:36:45;14.70;99.90
15107;DHT22;7654;45.308;-75.096;2023-07-31T10:39:36;14.70;99.90
15107;DHT22;7654;45.308;-75.096;2023-07-31T10:42:12;14.70;99.90
15107;DHT22;7654;45.308;-75.096;2023-07-31T10:44:46;14.80;99.90
15107;DHT22;7654;45.308;-75.096;2023-07-31T10:47:18;14.80;99.90
15107;DHT22;7654;45.308;-75.096;2023-07-31T10:49:49;14.80;99.90
15107;DHT22;7654;45.308;-75.096;2023-07-31T10:52:21;14.80;99.90
15107;DHT22;7654;45.308;-75.096;2023-07-31T10:55:16;14.80;99.90
15107;DHT22;7654;45.308;-75.096;2023-07-31T10:57:53;14.90;99.90
15107;DHT22;7654;45.308;-75.096;2023-07-31T11:00:26;14.90;99.90
15107;DHT22;7654;45.308;-75.096;2023-07-31T11:03:02;15.00;99.90
15107;DHT22;7654;45.308;-75.096;2023-07-31T11:05:47;15.00;99.90
15107;DHT22;7654;45.308;-75.096;2023-07-31T11:08:20;15.10;99.90
15107;DHT22;7654;45.308;-75.096;2023-07-31T11:11:04;15.10;99.90
15107;DHT22;7654;45.308;-75.096;2023-07-31T11:13:40;15.20;99.90
15107;DHT22;7654;45.308;-75.096;2023-07-31T11:16:12;15.20;99.90
15107;DHT22;7654;45.308;-75.096;2023-07-31T11:18:46;15.20;99.90
15107;DHT22;7654;45.308;-75.096;2023-07-31T11:21:20;15.30;99.90
15107;DHT22;7654;45.308;-75.096;2023-07-31T11:23:52;15.30;99.90
15107;DHT22;7654;45.308;-75.096;2023-07-31T11:26:25;15.40;99.90
15107;DHT22;7654;45.308;-75.096;2023-07-31T11:28:55;15.40;99.90
15107;DHT22;7654;45.308;-75.096;2023-07-31T11:31:26;15.50;99.90
15107;DHT22;7654;45.308;-75.096;2023-07-31T11:34:07;15.50;99.90
15107;DHT22;7654;45.308;-75.096;2023-07-31T11:36:37;15.60;99.90
15107;DHT22;7654;45.308;-75.096;2023-07-31T11:39:09;15.70;99.90
15107;DHT22;7654;45.308;-75.096;2023-07-31T11:41:41;15.80;99.90
15107;DHT22;7654;45.308;-75.096;2023-07-31T11:44:12;15.90;99.90
15107;DHT22;7654;45.308;-75.096;2023-07-31T11:46:57;15.90;99.90
15107;DHT22;7654;45.308;-75.096;2023-07-31T11:49:30;16.00;99.90
15107;DHT22;7654;45.308;-75.096;2023-07-31T11:52:04;16.00;99.90
15107;DHT22;7654;45.308;-75.096;2023-07-31T11:54:35;16.00;99.90
15107;DHT22;7654;45.308;-75.096;2023-07-31T11:57:06;16.10;99.90
15107;DHT22;7654;45.308;-75.096;2023-07-31T11:59:38;16.20;99.90
15107;DHT22;7654;45.308;-75.096;2023-07-31T12:02:10;16.30;99.90
15107;DHT22;7654;45.308;-75.096;2023-07-31T12:04:42;16.20;99.90
15107;DHT22;7654;45.308;-75.096;2023-07-31T12:07:13;16.20;99.90
15107;DHT22;7654;45.308;-75.096;2023-07-31T12:09:52;16.10;99.90
15107;DHT22;7654;45.308;-75.096;2023-07-31T12:12:24;16.20;99.90
15107;DHT22;7654;45.308;-75.096;2023-07-31T12:14:55;16.30;99.90
15107;DHT22;7654;45.308;-75.096;2023-07-31T12:17:26;16.50;99.90
15107;DHT22;7654;45.308;-75.096;2023-07-31T12:19:59;16.60;99.90
15107;DHT22;7654;45.308;-75.096;2023-07-31T12:22:29;16.70;99.90
15107;DHT22;7654;45.308;-75.096;2023-07-31T12:25:01;16.80;99.90
15107;DHT22;7654;45.308;-75.096;2023-07-31T12:27:33;16.90;99.90
15107;DHT22;7654;45.308;-75.096;2023-07-31T12:30:05;17.10;99.90
15107;DHT22;7654;45.308;-75.096;2023-07-31T12:32:36;17.10;99.90
15107;DHT22;7654;45.308;-75.096;2023-07-31T12:35:09;17.00;99.90
15107;DHT22;7654;45.308;-75.096;2023-07-31T12:37:40;16.90;99.90
15107;DHT22;7654;45.308;-75.096;2023-07-31T12:40:11;17.00;99.90
15107;DHT22;7654;45.308;-75.096;2023-07-31T12:42:50;17.00;99.90
15107;DHT22;7654;45.308;-75.096;2023-07-31T12:45:20;17.10;99.90
15107;DHT22;7654;45.308;-75.096;2023-07-31T12:47:51;17.20;99.90
15107;DHT22;7654;45.308;-75.096;2023-07-31T12:50:24;17.20;99.90
15107;DHT22;7654;45.308;-75.096;2023-07-31T12:52:55;17.20;99.90
15107;DHT22;7654;45.308;-75.096;2023-07-31T12:55:25;17.30;99.90
15107;DHT22;7654;45.308;-75.096;2023-07-31T12:57:56;17.30;99.90
15107;DHT22;7654;45.308;-75.096;2023-07-31T13:00:27;17.40;99.90
15107;DHT22;7654;45.308;-75.096;2023-07-31T13:02:58;17.40;99.90
15107;DHT22;7654;45.308;-75.096;2023-07-31T13:05:31;17.40;99.90
15107;DHT22;7654;45.308;-75.096;2023-07-31T13:08:02;17.50;99.90
15107;DHT22;7654;45.308;-75.096;2023-07-31T13:10:33;17.70;99.90
15107;DHT22;7654;45.308;-75.096;2023-07-31T13:13:04;18.00;99.90
15107;DHT22;7654;45.308;-75.096;2023-07-31T13:15:34;18.10;99.90
15107;DHT22;7654;45.308;-75.096;2023-07-31T13:18:05;18.10;99.90
15107;DHT22;7654;45.308;-75.096;2023-07-31T13:20:38;18.20;99.90
15107;DHT22;7654;45.308;-75.096;2023-07-31T13:23:09;18.30;99.90
15107;DHT22;7654;45.308;-75.096;2023-07-31T13:25:39;18.30;99.90
15107;DHT22;7654;45.308;-75.096;2023-07-31T13:28:10;18.30;99.90
15107;DHT22;7654;45.308;-75.096;2023-07-31T13:30:41;18.40;99.90
15107;DHT22;7654;45.308;-75.096;2023-07-31T13:33:11;18.40;99.90
15107;DHT22;7654;45.308;-75.096;2023-07-31T13:35:58;18.50;99.90
15107;DHT22;7654;45.308;-75.096;2023-07-31T13:38:28;18.50;99.90
15107;DHT22;7654;45.308;-75.096;2023-07-31T13:40:59;18.60;99.90
15107;DHT22;7654;45.308;-75.096;2023-07-31T13:43:29;18.50;99.90
15107;DHT22;7654;45.308;-75.096;2023-07-31T13:46:00;18.50;99.90
15107;DHT22;7654;45.308;-75.096;2023-07-31T13:48:35;18.40;99.90
15107;DHT22;7654;45.308;-75.096;2023-07-31T13:51:08;18.30;99.90
15107;DHT22;7654;45.308;-75.096;2023-07-31T13:53:38;18.30;99.90
15107;DHT22;7654;45.308;-75.096;2023-07-31T13:56:09;18.20;99.90
15107;DHT22;7654;45.308;-75.096;2023-07-31T13:58:40;18.40;99.90
15107;DHT22;7654;45.308;-75.096;2023-07-31T14:01:10;18.40;99.90
15107;DHT22;7654;45.308;-75.096;2023-07-31T14:03:41;18.40;99.90
15107;DHT22;7654;45.308;-75.096;2023-07-31T14:06:15;18.60;99.90
15107;DHT22;7654;45.308;-75.096;2023-07-31T14:08:46;18.70;99.90
15107;DHT22;7654;45.308;-75.096;2023-07-31T14:11:17;19.00;99.90
15107;DHT22;7654;45.308;-75.096;2023-07-31T14:13:47;19.20;99.90
15107;DHT22;7654;45.308;-75.096;2023-07-31T14:16:18;19.40;99.90
15107;DHT22;7654;45.308;-75.096;2023-07-31T14:18:49;19.60;99.90
15107;DHT22;7654;45.308;-75.096;2023-07-31T14:21:21;19.70;99.90
15107;DHT22;7654;45.308;-75.096;2023-07-31T14:23:52;20.00;99.90
15107;DHT22;7654;45.308;-75.096;2023-07-31T14:26:23;20.30;99.90
15107;DHT22;7654;45.308;-75.096;2023-07-31T14:28:54;20.50;99.90
15107;DHT22;7654;45.308;-75.096;2023-07-31T14:31:24;20.80;99.90
15107;DHT22;7654;45.308;-75.096;2023-07-31T14:33:55;21.00;99.90
15107;DHT22;7654;45.308;-75.096;2023-07-31T14:36:28;21.10;99.90
15107;DHT22;7654;45.308;-75.096;2023-07-31T14:39:06;21.00;99.90
15107;DHT22;7654;45.308;-75.096;2023-07-31T14:41:36;21.10;99.90
15107;DHT22;7654;45.308;-75.096;2023-07-31T14:44:07;21.30;99.90
15107;DHT22;7654;45.308;-75.096;2023-07-31T14:46:38;21.00;99.90
15107;DHT22;7654;45.308;-75.096;2023-07-31T14:49:09;20.90;99.90
15107;DHT22;7654;45.308;-75.096;2023-07-31T14:51:41;21.00;99.90
15107;DHT22;7654;45.308;-75.096;2023-07-31T14:54:11;21.10;99.90
15107;DHT22;7654;45.308;-75.096;2023-07-31T14:56:42;21.20;99.90
15107;DHT22;7654;45.308;-75.096;2023-07-31T14:59:12;21.20;99.90
15107;DHT22;7654;45.308;-75.096;2023-07-31T15:01:44;20.90;99.90
15107;DHT22;7654;45.308;-75.096;2023-07-31T15:04:14;20.80;99.90
15107;DHT22;7654;45.308;-75.096;2023-07-31T15:06:48;21.00;99.90
15107;DHT22;7654;45.308;-75.096;2023-07-31T15:09:18;21.00;99.90
15107;DHT22;7654;45.308;-75.096;2023-07-31T15:11:49;21.00;99.90
15107;DHT22;7654;45.308;-75.096;2023-07-31T15:14:20;20.90;99.90
15107;DHT22;7654;45.308;-75.096;2023-07-31T15:16:50;20.80;99.90
15107;DHT22;7654;45.308;-75.096;2023-07-31T15:19:21;20.60;99.90
15107;DHT22;7654;45.308;-75.096;2023-07-31T15:21:54;20.60;99.90
15107;DHT22;7654;45.308;-75.096;2023-07-31T15:24:24;20.70;99.90
15107;DHT22;7654;45.308;-75.096;2023-07-31T15:26:56;20.80;99.90
15107;DHT22;7654;45.308;-75.096;2023-07-31T15:29:27;21.00;99.90
15107;DHT22;7654;45.308;-75.096;2023-07-31T15:31:57;21.30;99.90
15107;DHT22;7654;45.308;-75.096;2023-07-31T15:34:29;21.50;99.90
15107;DHT22;7654;45.308;-75.096;2023-07-31T15:37:01;21.50;99.90
15107;DHT22;7654;45.308;-75.096;2023-07-31T15:39:32;21.30;99.90
15107;DHT22;7654;45.308;-75.096;2023-07-31T15:42:03;21.40;99.90
15107;DHT22;7654;45.308;-75.096;2023-07-31T15:44:33;21.80;99.90